createdAt,value
2017-11-15T00:01:18.189Z,5.50
2017-11-15T00:03:48.534Z,5.60
2017-11-15T00:06:16.448Z,5.60
2017-11-15T00:08:44.410Z,5.60
2017-11-15T00:11:12.304Z,5.60
2017-11-15T00:13:42.325Z,5.60
2017-11-15T00:16:10.274Z,5.60
2017-11-15T00:18:38.176Z,5.70
2017-11-15T00:21:06.160Z,5.70
2017-11-15T00:23:34.070Z,5.60
2017-11-15T00:26:02.035Z,5.60
2017-11-15T00:28:29.931Z,5.60
2017-11-15T00:30:57.882Z,5.60
2017-11-15T00:33:26.617Z,5.60
2017-11-15T00:35:54.591Z,5.60
2017-11-15T00:38:22.554Z,5.60
2017-11-15T00:40:50.578Z,5.60
2017-11-15T00:43:18.550Z,5.60
2017-11-15T00:45:46.620Z,5.60
2017-11-15T00:48:14.567Z,5.60
2017-11-15T00:50:42.511Z,5.60
2017-11-15T00:53:10.426Z,5.60
2017-11-15T00:55:38.357Z,5.60
2017-11-15T00:58:06.751Z,5.60
2017-11-15T01:00:34.745Z,5.70
2017-11-15T01:03:02.642Z,5.60
2017-11-15T01:05:30.603Z,5.60
2017-11-15T01:07:59.275Z,5.60
2017-11-15T01:10:27.221Z,5.70
2017-11-15T01:12:56.363Z,5.60
2017-11-15T01:15:25.078Z,5.60
2017-11-15T01:17:52.986Z,5.60
2017-11-15T01:20:20.890Z,5.60
2017-11-15T01:22:49.608Z,5.60
2017-11-15T01:25:17.508Z,5.60
2017-11-15T01:27:45.458Z,5.60
2017-11-15T01:30:13.808Z,5.50
2017-11-15T01:32:41.770Z,5.60
2017-11-15T01:35:09.688Z,5.60
2017-11-15T01:37:37.686Z,5.60
2017-11-15T01:40:05.614Z,5.60
2017-11-15T01:42:34.883Z,5.60
2017-11-15T01:45:02.837Z,5.70
2017-11-15T01:47:31.624Z,5.60
2017-11-15T01:49:59.545Z,5.60
2017-11-15T01:52:27.511Z,5.60
2017-11-15T01:54:55.431Z,5.60
2017-11-15T01:57:24.184Z,5.60
2017-11-15T01:59:52.147Z,5.60
2017-11-15T02:02:20.112Z,5.60
2017-11-15T02:04:48.079Z,5.70
2017-11-15T02:07:16.107Z,5.60
2017-11-15T02:09:44.076Z,5.60
2017-11-15T02:12:16.017Z,5.50
2017-11-15T02:14:43.934Z,5.50
2017-11-15T02:17:11.902Z,5.60
2017-11-15T02:19:39.874Z,5.60
2017-11-15T02:22:07.947Z,5.60
2017-11-15T02:24:35.907Z,5.70
2017-11-15T02:27:03.855Z,5.60
2017-11-15T02:29:31.878Z,5.60
2017-11-15T02:31:59.837Z,5.60
2017-11-15T02:34:27.857Z,5.70
2017-11-15T02:36:55.779Z,5.70
2017-11-15T02:39:23.880Z,5.70
2017-11-15T02:41:51.961Z,5.60
2017-11-15T02:44:19.974Z,5.60
2017-11-15T02:46:47.933Z,5.60
2017-11-15T02:49:16.707Z,5.60
2017-11-15T02:51:44.665Z,5.70
2017-11-15T02:54:12.652Z,5.60
2017-11-15T02:56:40.572Z,5.60
2017-11-15T02:59:08.550Z,5.50
2017-11-15T03:01:36.457Z,5.50
2017-11-15T03:04:04.629Z,5.40
2017-11-15T03:06:32.546Z,5.40
2017-11-15T03:09:00.530Z,5.40
2017-11-15T03:11:28.476Z,5.40
2017-11-15T03:13:56.444Z,5.40
2017-11-15T03:16:24.399Z,5.40
2017-11-15T03:18:52.393Z,5.30
2017-11-15T03:21:20.294Z,5.30
2017-11-15T03:23:48.287Z,5.30
2017-11-15T03:26:16.259Z,5.30
2017-11-15T03:28:44.223Z,5.30
2017-11-15T03:31:12.158Z,5.20
2017-11-15T03:33:40.188Z,5.30
2017-11-15T03:36:08.911Z,5.30
2017-11-15T03:38:36.808Z,5.30
2017-11-15T03:41:04.780Z,5.30
2017-11-15T03:43:32.684Z,5.30
2017-11-15T03:46:00.646Z,5.30
2017-11-15T03:48:28.563Z,5.30
2017-11-15T03:50:56.534Z,5.30
2017-11-15T03:53:24.442Z,5.40
2017-11-15T03:55:52.478Z,5.40
2017-11-15T03:58:20.370Z,5.40
2017-11-15T04:00:48.339Z,5.40
2017-11-15T04:03:16.448Z,5.40
2017-11-15T04:05:45.172Z,5.40
2017-11-15T04:08:13.094Z,5.40
2017-11-15T04:10:41.816Z,5.40
2017-11-15T04:13:09.728Z,5.40
2017-11-15T04:15:37.683Z,5.50
2017-11-15T04:18:05.583Z,5.50
2017-11-15T04:20:33.559Z,5.50
2017-11-15T04:23:02.229Z,5.50
2017-11-15T04:25:30.190Z,5.50
2017-11-15T04:27:58.088Z,5.50
2017-11-15T04:30:26.259Z,5.50
2017-11-15T04:32:54.207Z,5.50
2017-11-15T04:35:22.206Z,5.50
2017-11-15T04:37:50.103Z,5.50
2017-11-15T04:40:18.077Z,5.50
2017-11-15T04:42:45.978Z,5.60
2017-11-15T04:45:13.923Z,5.60
2017-11-15T04:47:41.932Z,5.60
2017-11-15T04:50:09.872Z,5.60
2017-11-15T04:52:37.857Z,5.60
2017-11-15T04:55:05.799Z,5.60
2017-11-15T04:57:33.735Z,5.50
2017-11-15T05:00:02.429Z,5.60
2017-11-15T05:02:30.523Z,5.60
2017-11-15T05:04:58.416Z,5.60
2017-11-15T05:07:26.354Z,5.70
2017-11-15T05:09:54.241Z,5.70
2017-11-15T05:12:22.206Z,5.60
2017-11-15T05:14:50.120Z,5.60
2017-11-15T05:17:18.091Z,5.60
2017-11-15T05:19:46.043Z,5.60
2017-11-15T05:22:14.063Z,5.60
2017-11-15T05:24:42.043Z,5.60
2017-11-15T05:27:10.023Z,5.60
2017-11-15T05:29:37.962Z,5.50
2017-11-15T05:32:05.901Z,5.50
2017-11-15T05:34:33.807Z,5.50
2017-11-15T05:37:01.756Z,5.50
2017-11-15T05:39:29.650Z,5.60
2017-11-15T05:41:57.597Z,5.60
2017-11-15T05:44:25.497Z,5.50
2017-11-15T05:46:53.435Z,5.50
2017-11-15T05:49:21.392Z,5.50
2017-11-15T05:51:49.291Z,5.50
2017-11-15T05:54:17.241Z,5.50
2017-11-15T05:56:45.142Z,5.50
2017-11-15T05:59:13.082Z,5.60
2017-11-15T06:01:41.753Z,5.60
2017-11-15T06:04:09.641Z,5.60
2017-11-15T06:06:37.584Z,5.50
2017-11-15T06:09:05.521Z,5.50
2017-11-15T06:11:33.406Z,5.50
2017-11-15T06:14:01.431Z,5.40
2017-11-15T06:16:29.293Z,5.40
2017-11-15T06:18:58.023Z,5.50
2017-11-15T06:21:25.980Z,5.50
2017-11-15T06:23:53.936Z,5.50
2017-11-15T06:26:21.844Z,5.60
2017-11-15T06:28:49.885Z,5.60
2017-11-15T06:31:17.836Z,5.50
2017-11-15T06:33:45.805Z,5.50
2017-11-15T06:36:14.521Z,5.50
2017-11-15T06:38:42.451Z,5.50
2017-11-15T06:41:10.347Z,5.50
2017-11-15T06:43:38.290Z,5.50
2017-11-15T06:46:06.179Z,5.50
2017-11-15T06:48:34.046Z,5.50
2017-11-15T06:51:02.003Z,5.50
2017-11-15T06:53:30.666Z,5.50
2017-11-15T06:55:58.593Z,5.50
2017-11-15T06:58:26.471Z,5.50
2017-11-15T07:00:54.412Z,5.50
2017-11-15T07:03:22.318Z,5.50
2017-11-15T07:05:50.296Z,5.50
2017-11-15T07:08:18.181Z,5.60
2017-11-15T07:10:46.123Z,5.50
2017-11-15T07:13:14.004Z,5.60
2017-11-15T07:15:41.946Z,5.60
2017-11-15T07:18:09.833Z,5.70
2017-11-15T07:20:37.775Z,5.70
2017-11-15T07:23:06.640Z,5.70
2017-11-15T07:25:35.371Z,5.80
2017-11-15T07:28:03.261Z,5.80
2017-11-15T07:30:31.214Z,5.80
2017-11-15T07:32:59.133Z,5.80
2017-11-15T07:35:27.075Z,5.80
2017-11-15T07:37:54.973Z,5.90
2017-11-15T07:40:22.926Z,5.90
2017-11-15T07:42:50.839Z,6.00
2017-11-15T07:45:18.793Z,6.00
2017-11-15T07:47:46.682Z,6.10
2017-11-15T07:50:14.626Z,6.20
2017-11-15T07:52:42.571Z,6.20
2017-11-15T07:55:10.466Z,6.30
2017-11-15T07:57:38.442Z,6.30
2017-11-15T08:00:06.441Z,6.20
2017-11-15T08:02:34.418Z,6.30
2017-11-15T08:05:02.320Z,6.40
2017-11-15T08:07:30.275Z,6.30
2017-11-15T08:09:58.192Z,6.40
2017-11-15T08:12:26.157Z,6.40
2017-11-15T08:14:54.053Z,6.50
2017-11-15T08:17:22.037Z,6.60
2017-11-15T08:19:49.967Z,6.70
2017-11-15T08:22:17.913Z,6.70
2017-11-15T08:24:46.618Z,6.90
2017-11-15T08:27:14.603Z,6.80
2017-11-15T08:29:42.490Z,6.80
2017-11-15T08:32:10.441Z,6.80
2017-11-15T08:34:38.375Z,6.80
2017-11-15T08:37:06.330Z,6.80
2017-11-15T08:39:34.239Z,6.80
2017-11-15T08:42:02.842Z,6.70
2017-11-15T08:44:31.063Z,6.80
2017-11-15T08:46:59.018Z,6.80
2017-11-15T08:49:26.934Z,6.90
2017-11-15T08:51:55.397Z,7.00
2017-11-15T08:54:23.306Z,7.00
2017-11-15T08:56:51.327Z,7.10
2017-11-15T08:59:19.392Z,7.00
2017-11-15T09:01:47.306Z,7.30
2017-11-15T09:04:15.263Z,7.30
2017-11-15T09:06:43.202Z,7.30
2017-11-15T09:09:11.296Z,7.10
2017-11-15T09:11:39.971Z,7.20
2017-11-15T09:14:07.969Z,7.30
2017-11-15T09:16:35.956Z,7.40
2017-11-15T09:19:03.941Z,7.10
2017-11-15T09:21:31.847Z,7.10
2017-11-15T09:23:59.866Z,7.20
2017-11-15T09:26:27.762Z,7.40
2017-11-15T09:28:55.747Z,7.60
2017-11-15T09:31:23.709Z,7.80
2017-11-15T09:33:51.816Z,8.40
2017-11-15T09:36:19.779Z,8.70
2017-11-15T09:38:48.500Z,8.60
2017-11-15T09:41:16.418Z,8.60
2017-11-15T09:43:45.615Z,8.70
2017-11-15T09:46:13.535Z,8.70
2017-11-15T09:48:41.480Z,8.70
2017-11-15T09:51:09.403Z,8.60
2017-11-15T09:53:37.385Z,8.50
2017-11-15T09:56:05.294Z,8.40
2017-11-15T09:58:33.238Z,8.40
2017-11-15T10:01:01.150Z,8.40
2017-11-15T10:03:29.105Z,8.60
2017-11-15T10:05:56.993Z,8.80
2017-11-15T10:08:24.896Z,8.90
2017-11-15T10:10:52.861Z,9.00
2017-11-15T10:13:20.870Z,8.90
2017-11-15T10:15:48.862Z,8.70
2017-11-15T10:18:16.761Z,8.60
2017-11-15T10:20:44.715Z,8.60
2017-11-15T10:23:12.635Z,8.60
2017-11-15T10:25:40.622Z,8.50
2017-11-15T10:28:08.522Z,8.50
2017-11-15T10:30:36.504Z,8.50
2017-11-15T10:33:04.406Z,8.40
2017-11-15T10:35:32.373Z,8.50
2017-11-15T10:38:00.282Z,8.50
2017-11-15T10:40:28.335Z,8.70
2017-11-15T10:42:59.285Z,8.60
2017-11-15T10:45:28.012Z,8.60
2017-11-15T10:47:55.913Z,8.50
2017-11-15T10:50:23.915Z,8.50
2017-11-15T10:52:52.760Z,8.50
2017-11-15T10:55:20.716Z,8.50
2017-11-15T10:57:48.636Z,8.40
2017-11-15T11:00:16.732Z,8.50
2017-11-15T11:02:45.946Z,8.60
2017-11-15T11:05:14.821Z,8.70
2017-11-15T11:07:42.757Z,8.70
2017-11-15T11:10:10.804Z,8.80
2017-11-15T11:12:38.811Z,8.70
2017-11-15T11:15:06.931Z,8.80
2017-11-15T11:17:35.771Z,9.00
2017-11-15T11:20:03.765Z,9.00
2017-11-15T11:22:32.490Z,9.00
2017-11-15T11:25:00.497Z,9.00
2017-11-15T11:27:28.468Z,9.00
2017-11-15T11:29:59.042Z,9.10
2017-11-15T11:32:27.106Z,9.10
2017-11-15T11:34:54.997Z,9.00
2017-11-15T11:37:23.815Z,9.00
2017-11-15T11:39:51.703Z,9.10
2017-11-15T11:42:19.863Z,9.10
2017-11-15T11:44:47.758Z,9.30
2017-11-15T11:47:16.463Z,9.40
2017-11-15T11:49:45.122Z,9.40
2017-11-15T11:52:13.994Z,9.50
2017-11-15T11:54:41.919Z,9.40
2017-11-15T11:57:09.875Z,9.50
2017-11-15T11:59:38.220Z,9.40
2017-11-15T12:02:06.231Z,9.50
2017-11-15T12:04:34.188Z,9.40
2017-11-15T12:07:02.214Z,9.60
2017-11-15T12:09:30.132Z,9.70
2017-11-15T12:12:01.049Z,9.70
2017-11-15T12:14:28.996Z,9.70
2017-11-15T12:16:56.972Z,9.70
2017-11-15T12:19:24.895Z,9.70
2017-11-15T12:21:52.873Z,9.70
2017-11-15T12:24:20.828Z,9.60
2017-11-15T12:26:48.738Z,9.60
2017-11-15T12:29:16.818Z,9.60
2017-11-15T12:31:45.387Z,9.60
2017-11-15T12:34:14.514Z,9.70
2017-11-15T12:36:42.434Z,9.60
2017-11-15T12:39:10.396Z,9.50
2017-11-15T12:41:38.349Z,9.60
2017-11-15T12:44:07.428Z,9.60
2017-11-15T12:46:35.420Z,9.70
2017-11-15T12:49:03.439Z,9.60
2017-11-15T12:51:31.377Z,9.60
2017-11-15T12:53:59.338Z,9.60
2017-11-15T12:56:27.250Z,9.60
2017-11-15T12:58:55.193Z,9.50
2017-11-15T13:01:23.107Z,9.60
2017-11-15T13:03:59.677Z,9.40
2017-11-15T13:06:27.574Z,9.40
2017-11-15T13:08:55.528Z,9.30
2017-11-15T13:11:23.428Z,9.40
2017-11-15T13:13:52.580Z,9.50
2017-11-15T13:16:20.559Z,9.60
2017-11-15T13:18:48.490Z,9.60
2017-11-15T13:21:16.417Z,9.60
2017-11-15T13:23:44.394Z,9.70
2017-11-15T13:26:12.323Z,9.70
2017-11-15T13:28:40.358Z,9.60
2017-11-15T13:31:08.292Z,9.60
2017-11-15T13:33:36.361Z,9.40
2017-11-15T13:36:05.055Z,9.40
2017-11-15T13:38:33.033Z,9.40
2017-11-15T13:41:01.689Z,9.40
2017-11-15T13:43:29.570Z,9.40
2017-11-15T13:45:57.514Z,9.40
2017-11-15T13:48:25.429Z,9.40
2017-11-15T13:50:53.374Z,9.40
2017-11-15T13:53:21.261Z,9.30
2017-11-15T13:55:49.957Z,9.20
2017-11-15T13:58:17.851Z,9.20
2017-11-15T14:00:45.787Z,9.30
2017-11-15T14:03:13.734Z,9.30
2017-11-15T14:05:41.663Z,9.30
2017-11-15T14:08:09.537Z,9.30
2017-11-15T14:10:37.486Z,9.30
2017-11-15T14:13:05.362Z,9.20
2017-11-15T14:15:33.314Z,9.10
2017-11-15T14:18:01.188Z,9.10
2017-11-15T14:20:29.131Z,9.20
2017-11-15T14:22:57.031Z,9.20
2017-11-15T14:25:24.973Z,9.10
2017-11-15T14:27:52.855Z,9.00
2017-11-15T14:30:20.823Z,9.00
2017-11-15T14:32:48.750Z,9.00
2017-11-15T14:35:16.673Z,9.10
2017-11-15T14:37:44.545Z,9.20
2017-11-15T14:40:12.514Z,9.20
2017-11-15T14:42:40.384Z,9.20
2017-11-15T14:45:08.285Z,9.20
2017-11-15T14:47:36.205Z,9.20
2017-11-15T14:50:04.130Z,9.10
2017-11-15T14:52:32.048Z,9.20
2017-11-15T14:54:59.931Z,9.20
2017-11-15T14:57:27.873Z,9.20
2017-11-15T14:59:55.772Z,9.20
2017-11-15T15:02:23.829Z,9.20
2017-11-15T15:04:51.710Z,9.10
2017-11-15T15:07:19.645Z,9.10
2017-11-15T15:09:48.305Z,9.00
2017-11-15T15:12:16.254Z,9.00
2017-11-15T15:14:44.141Z,9.00
2017-11-15T15:17:12.087Z,9.00
2017-11-15T15:19:39.969Z,8.90
2017-11-15T15:22:07.906Z,8.90
2017-11-15T15:24:35.854Z,8.90
2017-11-15T15:27:03.809Z,8.80
2017-11-15T15:29:31.690Z,8.70
2017-11-15T15:32:00.400Z,8.70
2017-11-15T15:34:28.348Z,8.70
2017-11-15T15:36:56.316Z,8.60
2017-11-15T15:39:24.974Z,8.60
2017-11-15T15:41:52.999Z,8.60
2017-11-15T15:44:20.880Z,8.60
2017-11-15T15:46:48.830Z,8.60
2017-11-15T15:49:16.716Z,8.50
2017-11-15T15:51:44.601Z,8.50
2017-11-15T15:54:12.539Z,8.40
2017-11-15T15:56:40.445Z,8.50
2017-11-15T15:59:08.390Z,8.40
2017-11-15T16:01:36.273Z,8.40
2017-11-15T16:04:04.210Z,8.40
2017-11-15T16:06:32.113Z,8.30
2017-11-15T16:09:00.049Z,8.30
2017-11-15T16:11:27.930Z,8.30
2017-11-15T16:13:55.864Z,8.30
2017-11-15T16:16:23.748Z,8.20
2017-11-15T16:18:52.096Z,8.20
2017-11-15T16:21:21.482Z,8.20
2017-11-15T16:23:49.440Z,8.10
2017-11-15T16:26:17.348Z,8.20
2017-11-15T16:28:45.277Z,8.20
2017-11-15T16:31:14.851Z,8.20
2017-11-15T16:33:42.796Z,8.20
2017-11-15T16:36:10.696Z,8.20
2017-11-15T16:38:38.622Z,8.20
2017-11-15T16:41:06.566Z,8.20
2017-11-15T16:43:34.491Z,8.20
2017-11-15T16:46:02.384Z,8.10
2017-11-15T16:48:30.318Z,8.10
2017-11-15T16:50:58.963Z,8.20
2017-11-15T16:53:31.413Z,8.10
2017-11-15T16:55:59.324Z,8.20
2017-11-15T16:58:27.281Z,8.20
2017-11-15T17:00:55.169Z,8.10
2017-11-15T17:03:23.080Z,8.10
2017-11-15T17:05:51.046Z,8.10
2017-11-15T17:08:18.941Z,8.10
2017-11-15T17:10:46.909Z,8.00
2017-11-15T17:13:22.043Z,8.00
2017-11-15T17:15:50.781Z,8.00
2017-11-15T17:18:19.759Z,8.00
2017-11-15T17:20:53.962Z,8.00
2017-11-15T17:23:25.934Z,8.00
2017-11-15T17:25:57.995Z,8.00
2017-11-15T17:28:31.168Z,8.10
2017-11-15T17:31:01.415Z,8.10
2017-11-15T17:33:29.398Z,8.00
2017-11-15T17:35:57.369Z,8.00
2017-11-15T17:38:25.263Z,8.00
2017-11-15T17:40:54.171Z,7.90
2017-11-15T17:43:22.129Z,7.90
2017-11-15T17:45:50.163Z,7.90
2017-11-15T17:48:18.187Z,7.90
2017-11-15T17:50:46.201Z,7.90
2017-11-15T17:53:15.249Z,7.90
2017-11-15T17:55:43.254Z,7.80
2017-11-15T17:58:12.274Z,7.80
2017-11-15T18:00:43.228Z,7.80
2017-11-15T18:03:11.780Z,7.90
2017-11-15T18:05:39.824Z,7.80
2017-11-15T18:08:07.732Z,7.80
2017-11-15T18:10:35.712Z,7.80
2017-11-15T18:13:03.808Z,7.80
2017-11-15T18:15:31.775Z,7.70
2017-11-15T18:17:59.760Z,7.70
2017-11-15T18:20:27.677Z,7.70
2017-11-15T18:22:55.641Z,7.80
2017-11-15T18:25:23.548Z,7.80
2017-11-15T18:27:51.514Z,7.70
2017-11-15T18:30:19.422Z,7.70
2017-11-15T18:32:47.391Z,7.80
2017-11-15T18:35:15.286Z,7.70
2017-11-15T18:37:47.626Z,7.70
2017-11-15T18:40:15.659Z,7.80
2017-11-15T18:42:43.799Z,7.80
2017-11-15T18:45:11.727Z,7.80
2017-11-15T18:47:39.712Z,7.70
2017-11-15T18:50:07.607Z,7.70
2017-11-15T18:52:35.609Z,7.70
2017-11-15T18:55:03.521Z,7.70
2017-11-15T18:57:31.462Z,7.70
2017-11-15T18:59:59.367Z,7.70
2017-11-15T19:02:27.330Z,7.70
2017-11-15T19:04:55.264Z,7.70
2017-11-15T19:07:26.772Z,7.60
2017-11-15T19:09:54.728Z,7.60
2017-11-15T19:12:23.575Z,7.60
2017-11-15T19:14:51.546Z,7.60
2017-11-15T19:17:19.570Z,7.60
2017-11-15T19:19:47.470Z,7.60
2017-11-15T19:22:15.429Z,7.60
2017-11-15T19:24:43.375Z,7.60
2017-11-15T19:27:11.431Z,7.60
2017-11-15T19:29:39.335Z,7.50
2017-11-15T19:32:07.246Z,7.50
2017-11-15T19:34:35.951Z,7.60
2017-11-15T19:37:03.867Z,7.50
2017-11-15T19:39:31.816Z,7.50
2017-11-15T19:41:59.752Z,7.50
2017-11-15T19:44:27.728Z,7.50
2017-11-15T19:46:55.638Z,7.50
2017-11-15T19:49:23.590Z,7.50
2017-11-15T19:51:51.497Z,7.60
2017-11-15T19:54:19.475Z,7.60
2017-11-15T19:56:47.372Z,7.50
2017-11-15T19:59:15.353Z,7.50
2017-11-15T20:01:43.300Z,7.50
2017-11-15T20:04:11.302Z,7.50
2017-11-15T20:06:39.264Z,7.50
2017-11-15T20:09:07.225Z,7.50
2017-11-15T20:11:40.828Z,7.50
2017-11-15T20:14:09.207Z,7.50
2017-11-15T20:16:39.357Z,7.50
2017-11-15T20:19:07.312Z,7.50
2017-11-15T20:21:35.212Z,7.50
2017-11-15T20:24:03.199Z,7.50
2017-11-15T20:26:31.108Z,7.50
2017-11-15T20:28:59.050Z,7.50
2017-11-15T20:31:26.924Z,7.50
2017-11-15T20:33:54.878Z,7.50
2017-11-15T20:36:22.782Z,7.50
2017-11-15T20:38:52.535Z,7.50
2017-11-15T20:41:20.430Z,7.50
2017-11-15T20:43:48.504Z,7.40
2017-11-15T20:46:16.395Z,7.50
2017-11-15T20:48:44.304Z,7.40
2017-11-15T20:51:12.242Z,7.40
2017-11-15T20:53:40.130Z,7.40
2017-11-15T20:56:08.091Z,7.40
2017-11-15T20:58:36.035Z,7.40
2017-11-15T21:01:04.040Z,7.50
2017-11-15T21:03:31.946Z,7.50
2017-11-15T21:05:59.906Z,7.50
2017-11-15T21:08:27.806Z,7.50
2017-11-15T21:10:56.527Z,7.50
2017-11-15T21:13:26.510Z,7.50
2017-11-15T21:15:55.219Z,7.50
2017-11-15T21:18:23.754Z,7.40
2017-11-15T21:20:51.814Z,7.50
2017-11-15T21:23:19.859Z,7.50
2017-11-15T21:25:48.157Z,7.50
2017-11-15T21:28:16.065Z,7.40
2017-11-15T21:30:44.032Z,7.50
2017-11-15T21:33:14.673Z,7.50
2017-11-15T21:35:42.719Z,7.50
2017-11-15T21:38:10.612Z,7.50
2017-11-15T21:40:38.555Z,7.50
2017-11-15T21:43:07.687Z,7.50
2017-11-15T21:45:36.410Z,7.50
2017-11-15T21:48:04.325Z,7.60
2017-11-15T21:50:33.094Z,7.50
2017-11-15T21:53:00.998Z,7.50
2017-11-15T21:55:29.018Z,7.50
2017-11-15T21:57:59.301Z,7.50
2017-11-15T22:00:27.218Z,7.50
2017-11-15T22:02:58.454Z,7.50
2017-11-15T22:05:26.357Z,7.50
2017-11-15T22:07:57.103Z,7.50
2017-11-15T22:10:28.565Z,7.50
2017-11-15T22:12:59.857Z,7.50
2017-11-15T22:15:31.005Z,7.50
2017-11-15T22:18:02.314Z,7.50
2017-11-15T22:20:32.827Z,7.50
2017-11-15T22:23:03.893Z,7.50
2017-11-15T22:25:34.201Z,7.50
2017-11-15T22:28:04.529Z,7.50
2017-11-15T22:30:35.309Z,7.50
2017-11-15T22:33:05.787Z,7.50
2017-11-15T22:35:37.840Z,7.50
2017-11-15T22:38:08.486Z,7.40
2017-11-15T22:40:40.568Z,7.40
2017-11-15T22:43:13.630Z,7.40
2017-11-15T22:45:45.093Z,7.40
2017-11-15T22:48:15.483Z,7.30
2017-11-15T22:50:48.373Z,7.40
2017-11-15T22:53:19.622Z,7.40
2017-11-15T22:55:55.727Z,7.40
2017-11-15T22:58:33.192Z,7.30
2017-11-15T23:01:03.635Z,7.30
2017-11-15T23:03:34.172Z,7.30
2017-11-15T23:06:04.238Z,7.30
2017-11-15T23:08:38.374Z,7.20
2017-11-15T23:11:10.490Z,7.20
2017-11-15T23:13:43.373Z,7.20
2017-11-15T23:16:16.948Z,7.20
2017-11-15T23:18:53.894Z,7.10
2017-11-15T23:21:24.467Z,7.10
2017-11-15T23:23:58.174Z,7.10
2017-11-15T23:26:30.334Z,7.10
2017-11-15T23:29:01.330Z,7.10
2017-11-15T23:31:31.329Z,7.00
2017-11-15T23:34:04.914Z,7.00
2017-11-15T23:36:40.247Z,7.00
2017-11-15T23:39:11.086Z,7.00
2017-11-15T23:41:41.054Z,7.00
2017-11-15T23:44:11.224Z,7.00
2017-11-15T23:46:41.844Z,7.00
2017-11-15T23:49:12.070Z,7.00
2017-11-15T23:51:41.997Z,7.00
2017-11-15T23:54:10.083Z,7.10
2017-11-15T23:56:37.963Z,7.10
2017-11-15T23:59:05.911Z,7.10
